sensor_id;sensor_type;location;lat;lon;timestamp;P1;durP1;ratioP1;P2;durP2;ratioP2
14348;SDS011;7258;50.376;8.742;2023-08-24T00:01:57;3.10;;;2.80;;
14348;SDS011;7258;50.376;8.742;2023-08-24T00:04:00;4.75;;;2.85;;
14348;SDS011;7258;50.376;8.742;2023-08-24T00:06:03;5.80;;;2.90;;
14348;SDS011;7258;50.376;8.742;2023-08-24T00:08:06;3.95;;;2.95;;
14348;SDS011;7258;50.376;8.742;2023-08-24T00:10:10;4.57;;;2.67;;
14348;SDS011;7258;50.376;8.742;2023-08-24T00:12:14;3.35;;;2.80;;
14348;SDS011;7258;50.376;8.742;2023-08-24T00:14:17;5.32;;;2.92;;
14348;SDS011;7258;50.376;8.742;2023-08-24T00:16:20;5.70;;;3.10;;
14348;SDS011;7258;50.376;8.742;2023-08-24T00:18:22;7.22;;;3.17;;
14348;SDS011;7258;50.376;8.742;2023-08-24T00:20:25;5.15;;;3.17;;
14348;SDS011;7258;50.376;8.742;2023-08-24T00:22:28;3.83;;;3.20;;
14348;SDS011;7258;50.376;8.742;2023-08-24T00:24:31;6.50;;;3.00;;
14348;SDS011;7258;50.376;8.742;2023-08-24T00:26:34;5.35;;;2.88;;
14348;SDS011;7258;50.376;8.742;2023-08-24T00:28:38;8.18;;;3.45;;
14348;SDS011;7258;50.376;8.742;2023-08-24T00:30:41;6.32;;;2.88;;
14348;SDS011;7258;50.376;8.742;2023-08-24T00:32:44;5.45;;;2.63;;
14348;SDS011;7258;50.376;8.742;2023-08-24T00:34:47;4.20;;;2.80;;
14348;SDS011;7258;50.376;8.742;2023-08-24T00:36:50;3.63;;;2.58;;
14348;SDS011;7258;50.376;8.742;2023-08-24T00:38:53;6.75;;;2.60;;
14348;SDS011;7258;50.376;8.742;2023-08-24T00:40:56;5.00;;;2.90;;
14348;SDS011;7258;50.376;8.742;2023-08-24T00:43:00;5.57;;;2.60;;
14348;SDS011;7258;50.376;8.742;2023-08-24T00:45:05;3.88;;;2.67;;
14348;SDS011;7258;50.376;8.742;2023-08-24T00:47:08;4.63;;;2.60;;
14348;SDS011;7258;50.376;8.742;2023-08-24T00:49:11;3.63;;;2.80;;
14348;SDS011;7258;50.376;8.742;2023-08-24T00:51:14;7.63;;;3.20;;
14348;SDS011;7258;50.376;8.742;2023-08-24T00:53:17;3.58;;;2.75;;
14348;SDS011;7258;50.376;8.742;2023-08-24T00:55:20;2.95;;;2.65;;
14348;SDS011;7258;50.376;8.742;2023-08-24T00:57:25;2.97;;;2.55;;
14348;SDS011;7258;50.376;8.742;2023-08-24T00:59:29;4.25;;;2.50;;
14348;SDS011;7258;50.376;8.742;2023-08-24T01:01:33;5.47;;;2.88;;
14348;SDS011;7258;50.376;8.742;2023-08-24T01:03:36;5.85;;;2.60;;
14348;SDS011;7258;50.376;8.742;2023-08-24T01:05:39;5.00;;;2.92;;
14348;SDS011;7258;50.376;8.742;2023-08-24T01:07:40;3.80;;;3.10;;
14348;SDS011;7258;50.376;8.742;2023-08-24T01:09:44;4.15;;;2.72;;
14348;SDS011;7258;50.376;8.742;2023-08-24T01:11:49;4.15;;;2.50;;
14348;SDS011;7258;50.376;8.742;2023-08-24T01:14:03;4.53;;;3.00;;
14348;SDS011;7258;50.376;8.742;2023-08-24T01:16:11;4.72;;;2.75;;
14348;SDS011;7258;50.376;8.742;2023-08-24T01:18:21;3.35;;;2.47;;
14348;SDS011;7258;50.376;8.742;2023-08-24T01:20:28;5.72;;;2.92;;
14348;SDS011;7258;50.376;8.742;2023-08-24T01:22:32;4.57;;;2.92;;
14348;SDS011;7258;50.376;8.742;2023-08-24T01:24:40;5.15;;;2.70;;
14348;SDS011;7258;50.376;8.742;2023-08-24T01:26:48;5.97;;;3.20;;
14348;SDS011;7258;50.376;8.742;2023-08-24T01:28:52;6.53;;;2.70;;
14348;SDS011;7258;50.376;8.742;2023-08-24T01:30:56;4.68;;;2.63;;
14348;SDS011;7258;50.376;8.742;2023-08-24T01:32:59;6.35;;;3.22;;
14348;SDS011;7258;50.376;8.742;2023-08-24T01:35:05;3.63;;;2.50;;
14348;SDS011;7258;50.376;8.742;2023-08-24T01:37:09;5.45;;;2.88;;
14348;SDS011;7258;50.376;8.742;2023-08-24T01:39:16;7.65;;;2.70;;
14348;SDS011;7258;50.376;8.742;2023-08-24T01:41:30;3.88;;;2.90;;
14348;SDS011;7258;50.376;8.742;2023-08-24T01:43:40;3.50;;;2.72;;
14348;SDS011;7258;50.376;8.742;2023-08-24T01:45:45;3.30;;;3.00;;
14348;SDS011;7258;50.376;8.742;2023-08-24T01:47:49;4.97;;;2.60;;
14348;SDS011;7258;50.376;8.742;2023-08-24T01:49:54;3.53;;;3.20;;
14348;SDS011;7258;50.376;8.742;2023-08-24T01:51:57;7.50;;;2.83;;
14348;SDS011;7258;50.376;8.742;2023-08-24T01:54:01;10.43;;;3.40;;
14348;SDS011;7258;50.376;8.742;2023-08-24T01:56:07;3.92;;;2.90;;
14348;SDS011;7258;50.376;8.742;2023-08-24T01:58:11;6.32;;;2.70;;
14348;SDS011;7258;50.376;8.742;2023-08-24T02:00:15;3.67;;;2.75;;
14348;SDS011;7258;50.376;8.742;2023-08-24T02:02:17;3.83;;;2.90;;
14348;SDS011;7258;50.376;8.742;2023-08-24T02:04:20;4.82;;;2.83;;
14348;SDS011;7258;50.376;8.742;2023-08-24T02:06:23;4.43;;;2.88;;
14348;SDS011;7258;50.376;8.742;2023-08-24T02:08:27;4.30;;;2.85;;
14348;SDS011;7258;50.376;8.742;2023-08-24T02:10:30;6.10;;;2.80;;
14348;SDS011;7258;50.376;8.742;2023-08-24T02:12:32;5.15;;;2.78;;
14348;SDS011;7258;50.376;8.742;2023-08-24T02:14:35;4.93;;;3.03;;
14348;SDS011;7258;50.376;8.742;2023-08-24T02:16:39;4.05;;;2.72;;
14348;SDS011;7258;50.376;8.742;2023-08-24T02:18:41;6.38;;;3.10;;
14348;SDS011;7258;50.376;8.742;2023-08-24T02:20:44;2.92;;;2.70;;
14348;SDS011;7258;50.376;8.742;2023-08-24T02:22:47;3.92;;;2.88;;
14348;SDS011;7258;50.376;8.742;2023-08-24T02:24:50;4.18;;;2.90;;
14348;SDS011;7258;50.376;8.742;2023-08-24T02:26:53;4.47;;;2.60;;
14348;SDS011;7258;50.376;8.742;2023-08-24T02:28:56;3.75;;;2.47;;
14348;SDS011;7258;50.376;8.742;2023-08-24T02:31:00;5.90;;;2.90;;
14348;SDS011;7258;50.376;8.742;2023-08-24T02:33:03;4.88;;;3.10;;
14348;SDS011;7258;50.376;8.742;2023-08-24T02:35:07;4.43;;;3.10;;
14348;SDS011;7258;50.376;8.742;2023-08-24T02:37:11;9.27;;;3.13;;
14348;SDS011;7258;50.376;8.742;2023-08-24T02:39:13;4.78;;;2.95;;
14348;SDS011;7258;50.376;8.742;2023-08-24T02:41:17;4.07;;;2.75;;
14348;SDS011;7258;50.376;8.742;2023-08-24T02:43:20;4.85;;;3.03;;
14348;SDS011;7258;50.376;8.742;2023-08-24T02:45:22;3.20;;;2.90;;
14348;SDS011;7258;50.376;8.742;2023-08-24T02:47:25;4.85;;;3.17;;
14348;SDS011;7258;50.376;8.742;2023-08-24T02:49:29;4.30;;;2.67;;
14348;SDS011;7258;50.376;8.742;2023-08-24T02:51:32;3.95;;;3.08;;
14348;SDS011;7258;50.376;8.742;2023-08-24T02:53:35;3.65;;;3.00;;
14348;SDS011;7258;50.376;8.742;2023-08-24T02:55:39;7.63;;;3.17;;
14348;SDS011;7258;50.376;8.742;2023-08-24T02:57:41;5.43;;;3.08;;
14348;SDS011;7258;50.376;8.742;2023-08-24T02:59:44;3.75;;;2.80;;
14348;SDS011;7258;50.376;8.742;2023-08-24T03:01:47;3.63;;;3.00;;
14348;SDS011;7258;50.376;8.742;2023-08-24T03:03:51;5.22;;;3.00;;
14348;SDS011;7258;50.376;8.742;2023-08-24T03:05:56;3.40;;;3.10;;
14348;SDS011;7258;50.376;8.742;2023-08-24T03:07:58;5.55;;;2.95;;
14348;SDS011;7258;50.376;8.742;2023-08-24T03:10:02;5.32;;;3.22;;
14348;SDS011;7258;50.376;8.742;2023-08-24T03:12:05;3.28;;;2.97;;
14348;SDS011;7258;50.376;8.742;2023-08-24T03:14:08;3.17;;;2.90;;
14348;SDS011;7258;50.376;8.742;2023-08-24T03:16:09;3.15;;;2.85;;
14348;SDS011;7258;50.376;8.742;2023-08-24T03:18:12;4.07;;;2.80;;
14348;SDS011;7258;50.376;8.742;2023-08-24T03:20:16;6.72;;;3.05;;
14348;SDS011;7258;50.376;8.742;2023-08-24T03:22:20;6.10;;;3.55;;
14348;SDS011;7258;50.376;8.742;2023-08-24T03:24:23;4.82;;;3.17;;
14348;SDS011;7258;50.376;8.742;2023-08-24T03:26:26;5.65;;;3.47;;
14348;SDS011;7258;50.376;8.742;2023-08-24T03:28:29;7.47;;;3.40;;
14348;SDS011;7258;50.376;8.742;2023-08-24T03:30:32;5.40;;;3.53;;
14348;SDS011;7258;50.376;8.742;2023-08-24T03:32:36;3.65;;;3.22;;
14348;SDS011;7258;50.376;8.742;2023-08-24T03:34:39;4.25;;;3.58;;
14348;SDS011;7258;50.376;8.742;2023-08-24T03:36:42;7.55;;;3.70;;
14348;SDS011;7258;50.376;8.742;2023-08-24T03:38:46;3.72;;;3.30;;
14348;SDS011;7258;50.376;8.742;2023-08-24T03:40:49;5.97;;;3.50;;
14348;SDS011;7258;50.376;8.742;2023-08-24T03:42:52;3.47;;;3.10;;
14348;SDS011;7258;50.376;8.742;2023-08-24T03:44:54;5.57;;;3.22;;
14348;SDS011;7258;50.376;8.742;2023-08-24T03:46:57;5.70;;;3.33;;
14348;SDS011;7258;50.376;8.742;2023-08-24T03:49:00;5.10;;;3.25;;
14348;SDS011;7258;50.376;8.742;2023-08-24T03:51:02;3.75;;;3.00;;
14348;SDS011;7258;50.376;8.742;2023-08-24T03:53:06;9.15;;;3.42;;
14348;SDS011;7258;50.376;8.742;2023-08-24T03:55:10;9.20;;;3.13;;
14348;SDS011;7258;50.376;8.742;2023-08-24T03:57:13;3.10;;;2.80;;
14348;SDS011;7258;50.376;8.742;2023-08-24T03:59:16;3.50;;;3.20;;
14348;SDS011;7258;50.376;8.742;2023-08-24T04:01:19;5.43;;;3.42;;
14348;SDS011;7258;50.376;8.742;2023-08-24T04:03:22;3.60;;;3.28;;
14348;SDS011;7258;50.376;8.742;2023-08-24T04:05:25;4.68;;;3.17;;
14348;SDS011;7258;50.376;8.742;2023-08-24T04:07:29;6.43;;;3.35;;
14348;SDS011;7258;50.376;8.742;2023-08-24T04:09:32;3.97;;;3.45;;
14348;SDS011;7258;50.376;8.742;2023-08-24T04:11:36;6.35;;;3.38;;
14348;SDS011;7258;50.376;8.742;2023-08-24T04:13:39;5.10;;;3.13;;
14348;SDS011;7258;50.376;8.742;2023-08-24T04:15:43;4.38;;;3.47;;
14348;SDS011;7258;50.376;8.742;2023-08-24T04:17:46;9.40;;;3.85;;
14348;SDS011;7258;50.376;8.742;2023-08-24T04:19:50;5.78;;;3.53;;
14348;SDS011;7258;50.376;8.742;2023-08-24T04:21:53;3.53;;;3.20;;
14348;SDS011;7258;50.376;8.742;2023-08-24T04:23:55;5.68;;;3.75;;
14348;SDS011;7258;50.376;8.742;2023-08-24T04:25:58;5.90;;;3.30;;
14348;SDS011;7258;50.376;8.742;2023-08-24T04:28:03;7.25;;;3.80;;
14348;SDS011;7258;50.376;8.742;2023-08-24T04:30:06;7.18;;;3.35;;
14348;SDS011;7258;50.376;8.742;2023-08-24T04:32:13;4.78;;;3.45;;
14348;SDS011;7258;50.376;8.742;2023-08-24T04:34:15;5.05;;;3.55;;
14348;SDS011;7258;50.376;8.742;2023-08-24T04:36:17;5.68;;;3.60;;
14348;SDS011;7258;50.376;8.742;2023-08-24T04:38:20;5.78;;;3.58;;
14348;SDS011;7258;50.376;8.742;2023-08-24T04:40:23;7.93;;;3.65;;
14348;SDS011;7258;50.376;8.742;2023-08-24T04:42:26;4.32;;;3.92;;
14348;SDS011;7258;50.376;8.742;2023-08-24T04:44:30;8.77;;;3.38;;
14348;SDS011;7258;50.376;8.742;2023-08-24T04:46:33;7.45;;;3.65;;
14348;SDS011;7258;50.376;8.742;2023-08-24T04:48:36;5.03;;;3.60;;
14348;SDS011;7258;50.376;8.742;2023-08-24T04:50:39;3.80;;;3.50;;
14348;SDS011;7258;50.376;8.742;2023-08-24T04:52:42;6.50;;;3.42;;
14348;SDS011;7258;50.376;8.742;2023-08-24T04:54:44;5.65;;;3.78;;
14348;SDS011;7258;50.376;8.742;2023-08-24T04:56:50;5.80;;;4.10;;
14348;SDS011;7258;50.376;8.742;2023-08-24T04:58:56;10.27;;;4.00;;
14348;SDS011;7258;50.376;8.742;2023-08-24T05:00:59;5.32;;;4.10;;
14348;SDS011;7258;50.376;8.742;2023-08-24T05:03:03;6.30;;;4.40;;
14348;SDS011;7258;50.376;8.742;2023-08-24T05:05:07;10.23;;;4.63;;
14348;SDS011;7258;50.376;8.742;2023-08-24T05:07:11;8.13;;;4.82;;
14348;SDS011;7258;50.376;8.742;2023-08-24T05:09:13;11.20;;;5.18;;
14348;SDS011;7258;50.376;8.742;2023-08-24T05:11:17;7.50;;;4.82;;
14348;SDS011;7258;50.376;8.742;2023-08-24T05:13:21;5.55;;;4.55;;
14348;SDS011;7258;50.376;8.742;2023-08-24T05:15:24;5.25;;;4.60;;
14348;SDS011;7258;50.376;8.742;2023-08-24T05:17:28;5.90;;;4.35;;
14348;SDS011;7258;50.376;8.742;2023-08-24T05:19:32;6.10;;;5.15;;
14348;SDS011;7258;50.376;8.742;2023-08-24T05:21:35;7.32;;;5.00;;
14348;SDS011;7258;50.376;8.742;2023-08-24T05:23:38;9.85;;;4.55;;
14348;SDS011;7258;50.376;8.742;2023-08-24T05:25:41;6.95;;;4.60;;
14348;SDS011;7258;50.376;8.742;2023-08-24T05:27:46;5.05;;;4.25;;
14348;SDS011;7258;50.376;8.742;2023-08-24T05:29:48;6.55;;;4.85;;
14348;SDS011;7258;50.376;8.742;2023-08-24T05:31:51;7.40;;;4.20;;
14348;SDS011;7258;50.376;8.742;2023-08-24T05:33:55;7.05;;;4.35;;
14348;SDS011;7258;50.376;8.742;2023-08-24T05:35:58;8.07;;;4.40;;
14348;SDS011;7258;50.376;8.742;2023-08-24T05:38:00;8.15;;;4.28;;
14348;SDS011;7258;50.376;8.742;2023-08-24T05:40:04;4.78;;;3.80;;
14348;SDS011;7258;50.376;8.742;2023-08-24T05:42:07;6.65;;;4.20;;
14348;SDS011;7258;50.376;8.742;2023-08-24T05:44:10;7.38;;;3.90;;
14348;SDS011;7258;50.376;8.742;2023-08-24T05:46:13;6.50;;;3.65;;
14348;SDS011;7258;50.376;8.742;2023-08-24T05:48:16;4.65;;;3.80;;
14348;SDS011;7258;50.376;8.742;2023-08-24T05:50:20;4.38;;;3.88;;
14348;SDS011;7258;50.376;8.742;2023-08-24T05:52:23;5.82;;;3.78;;
14348;SDS011;7258;50.376;8.742;2023-08-24T05:54:26;5.90;;;4.03;;
14348;SDS011;7258;50.376;8.742;2023-08-24T05:56:29;5.82;;;4.00;;
14348;SDS011;7258;50.376;8.742;2023-08-24T05:58:32;6.72;;;3.83;;
14348;SDS011;7258;50.376;8.742;2023-08-24T06:00:35;4.05;;;3.67;;
14348;SDS011;7258;50.376;8.742;2023-08-24T06:02:38;4.25;;;3.33;;
14348;SDS011;7258;50.376;8.742;2023-08-24T06:04:42;6.07;;;3.70;;
14348;SDS011;7258;50.376;8.742;2023-08-24T06:06:46;4.90;;;3.63;;
14348;SDS011;7258;50.376;8.742;2023-08-24T06:08:49;3.80;;;3.42;;
14348;SDS011;7258;50.376;8.742;2023-08-24T06:10:51;6.50;;;3.15;;
14348;SDS011;7258;50.376;8.742;2023-08-24T06:12:54;7.35;;;3.90;;
14348;SDS011;7258;50.376;8.742;2023-08-24T06:14:57;5.18;;;3.60;;
14348;SDS011;7258;50.376;8.742;2023-08-24T06:17:03;8.35;;;3.65;;
14348;SDS011;7258;50.376;8.742;2023-08-24T06:19:06;5.55;;;3.28;;
14348;SDS011;7258;50.376;8.742;2023-08-24T06:21:09;7.68;;;3.67;;
14348;SDS011;7258;50.376;8.742;2023-08-24T06:23:13;4.40;;;3.47;;
14348;SDS011;7258;50.376;8.742;2023-08-24T06:25:16;5.20;;;3.53;;
14348;SDS011;7258;50.376;8.742;2023-08-24T06:27:19;4.38;;;3.63;;
14348;SDS011;7258;50.376;8.742;2023-08-24T06:29:22;4.38;;;3.95;;
14348;SDS011;7258;50.376;8.742;2023-08-24T06:31:24;5.60;;;4.40;;
14348;SDS011;7258;50.376;8.742;2023-08-24T06:33:27;6.22;;;4.75;;
14348;SDS011;7258;50.376;8.742;2023-08-24T06:35:31;11.70;;;5.05;;
14348;SDS011;7258;50.376;8.742;2023-08-24T06:37:34;6.50;;;4.80;;
14348;SDS011;7258;50.376;8.742;2023-08-24T06:39:39;8.15;;;5.35;;
14348;SDS011;7258;50.376;8.742;2023-08-24T06:41:42;7.95;;;6.40;;
14348;SDS011;7258;50.376;8.742;2023-08-24T06:43:44;9.02;;;7.32;;
14348;SDS011;7258;50.376;8.742;2023-08-24T06:45:47;11.63;;;7.65;;
14348;SDS011;7258;50.376;8.742;2023-08-24T06:47:51;7.22;;;6.57;;
14348;SDS011;7258;50.376;8.742;2023-08-24T06:49:54;7.88;;;6.95;;
14348;SDS011;7258;50.376;8.742;2023-08-24T06:51:57;8.70;;;7.80;;
14348;SDS011;7258;50.376;8.742;2023-08-24T06:54:00;8.52;;;7.15;;
14348;SDS011;7258;50.376;8.742;2023-08-24T06:56:05;9.38;;;7.75;;
14348;SDS011;7258;50.376;8.742;2023-08-24T06:58:08;8.73;;;7.80;;
14348;SDS011;7258;50.376;8.742;2023-08-24T07:00:11;10.07;;;8.27;;
14348;SDS011;7258;50.376;8.742;2023-08-24T07:02:16;10.50;;;8.60;;
14348;SDS011;7258;50.376;8.742;2023-08-24T07:04:19;10.75;;;9.48;;
14348;SDS011;7258;50.376;8.742;2023-08-24T07:06:22;9.00;;;8.13;;
14348;SDS011;7258;50.376;8.742;2023-08-24T07:08:26;10.05;;;8.60;;
14348;SDS011;7258;50.376;8.742;2023-08-24T07:10:29;9.32;;;8.30;;
14348;SDS011;7258;50.376;8.742;2023-08-24T07:12:33;9.70;;;8.50;;
14348;SDS011;7258;50.376;8.742;2023-08-24T07:14:36;9.93;;;9.02;;
14348;SDS011;7258;50.376;8.742;2023-08-24T07:16:39;9.95;;;9.05;;
14348;SDS011;7258;50.376;8.742;2023-08-24T07:18:42;12.52;;;9.70;;
14348;SDS011;7258;50.376;8.742;2023-08-24T07:20:44;11.80;;;10.43;;
14348;SDS011;7258;50.376;8.742;2023-08-24T07:22:47;11.55;;;10.45;;
14348;SDS011;7258;50.376;8.742;2023-08-24T07:24:51;14.18;;;10.93;;
14348;SDS011;7258;50.376;8.742;2023-08-24T07:26:55;12.68;;;10.52;;
14348;SDS011;7258;50.376;8.742;2023-08-24T07:29:00;12.75;;;10.10;;
14348;SDS011;7258;50.376;8.742;2023-08-24T07:31:06;12.65;;;11.35;;
14348;SDS011;7258;50.376;8.742;2023-08-24T07:33:10;14.35;;;11.27;;
14348;SDS011;7258;50.376;8.742;2023-08-24T07:35:12;11.80;;;10.70;;
14348;SDS011;7258;50.376;8.742;2023-08-24T07:37:14;11.82;;;10.80;;
14348;SDS011;7258;50.376;8.742;2023-08-24T07:39:17;10.82;;;9.20;;
14348;SDS011;7258;50.376;8.742;2023-08-24T07:41:21;10.95;;;9.60;;
14348;SDS011;7258;50.376;8.742;2023-08-24T07:43:24;10.45;;;9.43;;
14348;SDS011;7258;50.376;8.742;2023-08-24T07:45:28;10.52;;;8.65;;
14348;SDS011;7258;50.376;8.742;2023-08-24T07:47:31;9.95;;;7.90;;
14348;SDS011;7258;50.376;8.742;2023-08-24T07:49:34;8.43;;;7.50;;
14348;SDS011;7258;50.376;8.742;2023-08-24T07:51:37;7.53;;;6.93;;
14348;SDS011;7258;50.376;8.742;2023-08-24T07:53:40;8.32;;;6.95;;
14348;SDS011;7258;50.376;8.742;2023-08-24T07:55:51;11.75;;;7.30;;
14348;SDS011;7258;50.376;8.742;2023-08-24T07:57:57;7.97;;;7.18;;
14348;SDS011;7258;50.376;8.742;2023-08-24T08:00:00;7.70;;;6.85;;
14348;SDS011;7258;50.376;8.742;2023-08-24T08:02:06;8.93;;;6.80;;
14348;SDS011;7258;50.376;8.742;2023-08-24T08:04:10;7.22;;;6.43;;
14348;SDS011;7258;50.376;8.742;2023-08-24T08:06:13;10.07;;;7.00;;
14348;SDS011;7258;50.376;8.742;2023-08-24T08:08:16;7.60;;;6.95;;
14348;SDS011;7258;50.376;8.742;2023-08-24T08:10:19;9.23;;;7.28;;
14348;SDS011;7258;50.376;8.742;2023-08-24T08:12:23;7.22;;;6.60;;
14348;SDS011;7258;50.376;8.742;2023-08-24T08:14:26;10.50;;;6.97;;
14348;SDS011;7258;50.376;8.742;2023-08-24T08:16:29;7.05;;;6.45;;
14348;SDS011;7258;50.376;8.742;2023-08-24T08:18:32;11.70;;;7.07;;
14348;SDS011;7258;50.376;8.742;2023-08-24T08:20:35;9.63;;;6.65;;
14348;SDS011;7258;50.376;8.742;2023-08-24T08:22:38;9.85;;;6.65;;
14348;SDS011;7258;50.376;8.742;2023-08-24T08:24:41;9.55;;;6.10;;
14348;SDS011;7258;50.376;8.742;2023-08-24T08:26:44;8.00;;;5.55;;
14348;SDS011;7258;50.376;8.742;2023-08-24T08:28:48;6.03;;;5.45;;
14348;SDS011;7258;50.376;8.742;2023-08-24T08:30:51;6.65;;;5.40;;
14348;SDS011;7258;50.376;8.742;2023-08-24T08:32:53;8.93;;;5.82;;
14348;SDS011;7258;50.376;8.742;2023-08-24T08:34:56;7.72;;;6.00;;
14348;SDS011;7258;50.376;8.742;2023-08-24T08:37:01;6.60;;;5.20;;
14348;SDS011;7258;50.376;8.742;2023-08-24T08:39:04;7.07;;;5.53;;
14348;SDS011;7258;50.376;8.742;2023-08-24T08:41:06;5.05;;;4.43;;
14348;SDS011;7258;50.376;8.742;2023-08-24T08:43:09;8.63;;;4.80;;
14348;SDS011;7258;50.376;8.742;2023-08-24T08:45:14;5.78;;;4.22;;
14348;SDS011;7258;50.376;8.742;2023-08-24T08:47:17;8.60;;;5.05;;
14348;SDS011;7258;50.376;8.742;2023-08-24T08:49:20;5.15;;;4.28;;
14348;SDS011;7258;50.376;8.742;2023-08-24T08:51:23;5.90;;;4.13;;
14348;SDS011;7258;50.376;8.742;2023-08-24T08:53:26;6.57;;;3.97;;
14348;SDS011;7258;50.376;8.742;2023-08-24T08:55:29;3.83;;;3.53;;
14348;SDS011;7258;50.376;8.742;2023-08-24T08:57:32;3.92;;;3.63;;
14348;SDS011;7258;50.376;8.742;2023-08-24T08:59:36;5.72;;;4.10;;
14348;SDS011;7258;50.376;8.742;2023-08-24T09:01:41;7.38;;;4.20;;
14348;SDS011;7258;50.376;8.742;2023-08-24T09:03:45;7.95;;;4.97;;
14348;SDS011;7258;50.376;8.742;2023-08-24T09:05:49;7.28;;;4.57;;
14348;SDS011;7258;50.376;8.742;2023-08-24T09:07:52;6.43;;;4.10;;
14348;SDS011;7258;50.376;8.742;2023-08-24T09:09:57;5.88;;;3.97;;
14348;SDS011;7258;50.376;8.742;2023-08-24T09:12:00;6.93;;;4.10;;
14348;SDS011;7258;50.376;8.742;2023-08-24T09:14:02;6.22;;;3.92;;
14348;SDS011;7258;50.376;8.742;2023-08-24T09:16:05;5.10;;;3.75;;
14348;SDS011;7258;50.376;8.742;2023-08-24T09:18:11;7.65;;;4.07;;
14348;SDS011;7258;50.376;8.742;2023-08-24T09:20:14;5.18;;;3.53;;
14348;SDS011;7258;50.376;8.742;2023-08-24T09:22:17;5.43;;;3.85;;
14348;SDS011;7258;50.376;8.742;2023-08-24T09:24:20;5.70;;;3.65;;
14348;SDS011;7258;50.376;8.742;2023-08-24T09:26:34;5.93;;;3.67;;
14348;SDS011;7258;50.376;8.742;2023-08-24T09:28:37;4.90;;;2.83;;
14348;SDS011;7258;50.376;8.742;2023-08-24T09:30:41;6.32;;;3.30;;
14348;SDS011;7258;50.376;8.742;2023-08-24T09:32:49;4.50;;;3.03;;
14348;SDS011;7258;50.376;8.742;2023-08-24T09:34:54;4.32;;;3.20;;
14348;SDS011;7258;50.376;8.742;2023-08-24T09:36:57;5.95;;;3.40;;
14348;SDS011;7258;50.376;8.742;2023-08-24T09:39:01;4.07;;;2.90;;
14348;SDS011;7258;50.376;8.742;2023-08-24T09:41:06;5.05;;;2.97;;
14348;SDS011;7258;50.376;8.742;2023-08-24T09:43:11;7.00;;;2.70;;
14348;SDS011;7258;50.376;8.742;2023-08-24T09:45:17;2.95;;;2.45;;
14348;SDS011;7258;50.376;8.742;2023-08-24T09:47:19;5.03;;;2.80;;
14348;SDS011;7258;50.376;8.742;2023-08-24T09:49:22;2.83;;;2.50;;
14348;SDS011;7258;50.376;8.742;2023-08-24T09:51:28;4.43;;;2.95;;
14348;SDS011;7258;50.376;8.742;2023-08-24T09:53:32;5.65;;;2.67;;
14348;SDS011;7258;50.376;8.742;2023-08-24T09:55:39;6.70;;;2.75;;
14348;SDS011;7258;50.376;8.742;2023-08-24T09:57:44;6.05;;;2.50;;
14348;SDS011;7258;50.376;8.742;2023-08-24T09:59:48;2.45;;;2.25;;
14348;SDS011;7258;50.376;8.742;2023-08-24T10:01:51;3.55;;;2.38;;
14348;SDS011;7258;50.376;8.742;2023-08-24T10:03:58;4.38;;;2.80;;
14348;SDS011;7258;50.376;8.742;2023-08-24T10:06:02;3.45;;;2.70;;
14348;SDS011;7258;50.376;8.742;2023-08-24T10:08:11;2.55;;;2.35;;
14348;SDS011;7258;50.376;8.742;2023-08-24T10:10:14;2.85;;;2.58;;
14348;SDS011;7258;50.376;8.742;2023-08-24T10:12:20;3.67;;;2.67;;
14348;SDS011;7258;50.376;8.742;2023-08-24T10:14:27;2.75;;;2.22;;
14348;SDS011;7258;50.376;8.742;2023-08-24T10:16:35;4.82;;;2.22;;
14348;SDS011;7258;50.376;8.742;2023-08-24T10:18:46;3.67;;;2.67;;
14348;SDS011;7258;50.376;8.742;2023-08-24T10:20:52;2.75;;;2.45;;
14348;SDS011;7258;50.376;8.742;2023-08-24T10:22:55;2.90;;;2.60;;
14348;SDS011;7258;50.376;8.742;2023-08-24T10:25:07;4.45;;;2.30;;
14348;SDS011;7258;50.376;8.742;2023-08-24T10:27:11;3.03;;;2.70;;
14348;SDS011;7258;50.376;8.742;2023-08-24T10:29:17;2.58;;;2.38;;
14348;SDS011;7258;50.376;8.742;2023-08-24T10:31:21;3.40;;;2.55;;
14348;SDS011;7258;50.376;8.742;2023-08-24T10:33:24;2.60;;;2.40;;
14348;SDS011;7258;50.376;8.742;2023-08-24T10:35:28;3.90;;;2.33;;
14348;SDS011;7258;50.376;8.742;2023-08-24T10:37:31;5.15;;;2.10;;
14348;SDS011;7258;50.376;8.742;2023-08-24T10:39:35;3.70;;;2.30;;
14348;SDS011;7258;50.376;8.742;2023-08-24T10:41:50;3.88;;;2.40;;
14348;SDS011;7258;50.376;8.742;2023-08-24T10:44:03;2.78;;;2.28;;
14348;SDS011;7258;50.376;8.742;2023-08-24T10:46:13;3.25;;;2.10;;
14348;SDS011;7258;50.376;8.742;2023-08-24T10:48:17;3.22;;;2.22;;
14348;SDS011;7258;50.376;8.742;2023-08-24T10:50:21;3.83;;;2.40;;
14348;SDS011;7258;50.376;8.742;2023-08-24T10:52:24;4.20;;;2.33;;
14348;SDS011;7258;50.376;8.742;2023-08-24T10:54:32;3.22;;;2.25;;
14348;SDS011;7258;50.376;8.742;2023-08-24T10:56:35;2.70;;;2.33;;
14348;SDS011;7258;50.376;8.742;2023-08-24T10:58:41;6.65;;;2.60;;
14348;SDS011;7258;50.376;8.742;2023-08-24T11:00:43;4.43;;;2.45;;
14348;SDS011;7258;50.376;8.742;2023-08-24T11:02:51;5.68;;;2.38;;
14348;SDS011;7258;50.376;8.742;2023-08-24T11:05:03;4.47;;;2.33;;
14348;SDS011;7258;50.376;8.742;2023-08-24T11:07:06;3.03;;;2.20;;
14348;SDS011;7258;50.376;8.742;2023-08-24T11:09:18;3.95;;;2.38;;
14348;SDS011;7258;50.376;8.742;2023-08-24T11:11:21;4.03;;;2.45;;
14348;SDS011;7258;50.376;8.742;2023-08-24T11:13:26;4.07;;;2.38;;
14348;SDS011;7258;50.376;8.742;2023-08-24T11:15:30;6.15;;;2.40;;
14348;SDS011;7258;50.376;8.742;2023-08-24T11:17:33;3.50;;;2.28;;
14348;SDS011;7258;50.376;8.742;2023-08-24T11:19:36;4.38;;;2.35;;
14348;SDS011;7258;50.376;8.742;2023-08-24T11:21:39;2.90;;;2.20;;
14348;SDS011;7258;50.376;8.742;2023-08-24T11:23:42;4.45;;;2.38;;
14348;SDS011;7258;50.376;8.742;2023-08-24T11:25:46;4.18;;;2.17;;
14348;SDS011;7258;50.376;8.742;2023-08-24T11:27:52;3.65;;;2.60;;
14348;SDS011;7258;50.376;8.742;2023-08-24T11:29:58;5.20;;;2.42;;
14348;SDS011;7258;50.376;8.742;2023-08-24T11:32:04;4.95;;;2.38;;
14348;SDS011;7258;50.376;8.742;2023-08-24T11:34:07;2.38;;;2.17;;
14348;SDS011;7258;50.376;8.742;2023-08-24T11:36:10;2.45;;;2.05;;
14348;SDS011;7258;50.376;8.742;2023-08-24T11:38:13;2.58;;;2.30;;
14348;SDS011;7258;50.376;8.742;2023-08-24T11:40:16;2.50;;;2.30;;
14348;SDS011;7258;50.376;8.742;2023-08-24T11:42:19;2.45;;;2.20;;
14348;SDS011;7258;50.376;8.742;2023-08-24T11:44:21;4.30;;;2.63;;
14348;SDS011;7258;50.376;8.742;2023-08-24T11:46:30;3.33;;;2.50;;
14348;SDS011;7258;50.376;8.742;2023-08-24T11:48:34;3.80;;;2.42;;
14348;SDS011;7258;50.376;8.742;2023-08-24T11:50:38;4.35;;;2.40;;
14348;SDS011;7258;50.376;8.742;2023-08-24T11:52:41;2.47;;;2.28;;
14348;SDS011;7258;50.376;8.742;2023-08-24T11:54:44;3.25;;;2.72;;
14348;SDS011;7258;50.376;8.742;2023-08-24T11:56:47;2.70;;;2.25;;
14348;SDS011;7258;50.376;8.742;2023-08-24T11:58:50;2.40;;;2.20;;
14348;SDS011;7258;50.376;8.742;2023-08-24T12:00:53;2.60;;;2.40;;
14348;SDS011;7258;50.376;8.742;2023-08-24T12:02:57;4.38;;;2.50;;
14348;SDS011;7258;50.376;8.742;2023-08-24T12:05:02;2.92;;;2.47;;
14348;SDS011;7258;50.376;8.742;2023-08-24T12:07:09;4.15;;;2.65;;
14348;SDS011;7258;50.376;8.742;2023-08-24T12:09:12;2.30;;;2.10;;
14348;SDS011;7258;50.376;8.742;2023-08-24T12:11:15;3.53;;;2.40;;
14348;SDS011;7258;50.376;8.742;2023-08-24T12:13:19;3.53;;;2.50;;
14348;SDS011;7258;50.376;8.742;2023-08-24T12:15:22;2.55;;;2.35;;
14348;SDS011;7258;50.376;8.742;2023-08-24T12:17:25;2.70;;;2.50;;
14348;SDS011;7258;50.376;8.742;2023-08-24T12:19:28;5.00;;;2.30;;
14348;SDS011;7258;50.376;8.742;2023-08-24T12:21:32;3.15;;;2.22;;
14348;SDS011;7258;50.376;8.742;2023-08-24T12:23:35;5.03;;;2.17;;
14348;SDS011;7258;50.376;8.742;2023-08-24T12:25:38;6.35;;;2.72;;
14348;SDS011;7258;50.376;8.742;2023-08-24T12:27:45;3.90;;;2.35;;
14348;SDS011;7258;50.376;8.742;2023-08-24T12:29:46;4.15;;;2.30;;
14348;SDS011;7258;50.376;8.742;2023-08-24T12:31:50;3.63;;;2.42;;
14348;SDS011;7258;50.376;8.742;2023-08-24T12:33:59;3.60;;;2.15;;
14348;SDS011;7258;50.376;8.742;2023-08-24T12:36:04;3.45;;;2.58;;
14348;SDS011;7258;50.376;8.742;2023-08-24T12:38:09;4.93;;;2.25;;